Nottingham - eastern half: Past 24 Hour Conditions

 

Pond Inlet Airport

04:00 PM EDT 23 April 2014
This table is a summary of hourly weather conditions for the past 24 hours.
Date / Time
(EDT)
Wind(knots) Conditions Visibility(km) Pressure(kPa) Air tempC) Relative humidity(%) Dew pointC) Wind Chill
23 April 2014
16:00 SSW 5 Mainly Sunny 24 101.7 -16 77 -19 -21
15:00 SW 5 Light Snow 13 101.7 -16 77 -19 -21
14:00 SW 5 Light Snow 21 101.7 -16 75 -20 -23
13:00 SSW 5 Mainly Sunny 40 101.7 -16 72 -20 -23
12:00 SW 5 Mainly Sunny 64 101.7 -17 72 -20 -23
11:00 SW 3 Mainly Sunny 64 101.7 -17 74 -20 -21
10:00 SW 2 Mostly Cloudy 16 101.7 -17 75 -21 -20
9:00 SSW 6 Mostly Cloudy 16 101.7 -18 78 -21 -25
8:00 SSW 3 Light Snow 16 101.7 -18 81 -21 -22
7:00 SSW 3 Light Snow 5 101.7 -18 84 -20 -22
6:00 NW 2 Light Snow 13 101.7 -18 84 -20 -21
5:00 calm Light Snow 16 101.6 -18 87 -19 *
4:00 S 2 Light Snow 8 101.6 -18 86 -19 -21
3:00 SSE 2 Cloudy 16 101.6 -18 83 -20 -21
2:00 SSE 2 Light Snow 13 101.6 -18 80 -21 -22
1:00 S 3 Clear 16 101.6 -19 79 -22 -23
0:00 S 3 Clear 16 101.5 -19 80 -22 -24
22 April 2014
23:00 S 3 Clear 16 101.5 -18 84 -20 -22
22:00 S 4 Sunny 16 101.5 -19 79 -22 -25
21:00 S 6 Sunny 16 101.5 -19 79 -22 -26
20:00 S 6 Sunny 16 101.6 -17 78 -20 -24
19:00 S 6 Partly Cloudy 40 101.6 -17 79 -20 -24
18:00 S 5 Partly Cloudy 40 101.6 -17 80 -20 -23
17:00 SSW 4 Mostly Cloudy 40 101.6 -17 83 -19 -22
16:00 SW 3 Mainly Sunny 40 101.6 -17 83 -19 -21
 
Map of Arctic - Eastern Arctic marine weather areas Baker Lake Airport Chesterfield Inlet Airport Coral Harbour Airport Gjoa Haven Airport Kugaaruk Airport Rankin Inlet Airport Shepherd Bay Airport Whale Cove Airport Arctic Bay Brevoort Island Qikiqtarjuaq Airport Cape Dorset Airport Cape Dyer Cape Hooper Clyde Airport Grise Fiord Airport Hall Beach Airport Igloolik Airport Iqaluit Airport Longstaff Bluff Pangnirtung Airport Pond Inlet Airport Repulse Bay Airport Resolute Airport Resolution Island Rowley Island Airport Taloyoak Airport Wager Bay Akulivik Airport Ivujivik Airport Puvirnituq Airport Kangiqsujuaq Airport Kangirsuk Airport Quaqtaq Airport Tasiujaq Airport Cape Kakkiviak Cape Kiglapait Nain Airport Saglek Cape Mercy Kimmirut Airport Aupaluk Airport Salluit Airport Kangiqsualujjuaq Airport Fort Ross
Legend: buoyBuoy land stationLand Station